Stinnett, Texas
Current Conditions -  °F | °C
As of 7:51 PM on Saturday 25 Oct 2014 (Local Time) from KBGD Reporting Station
Clear Clear  
Wind Chill: 78°   Ceiling: Unl
Heat Index: 78°   Visibility: 10mi
Dew Point: 48°   Wind: 13mph
Humidity: 35%   Direction: 170°S
Pressure: 30.03"   Gusts: NA
Location:  35.83°N, 101.44°W
Report Text: KBGD 260051Z AUTO 17011KT 10SM CLR 26/09 A3003 RMK AO2 SLP138 T02560089
Loading
Personal Weather Stations






























Interactive Weather Map
Tropical Storm Tracking
New forecast layout! Learn more

10-Day Weather Forecast

Advertisements
Track Severe Weather on mobile